createdAt,value
2019-04-24T00:00:29.256Z,18.17
2019-04-24T00:02:58.707Z,21.50
2019-04-24T00:05:47.310Z,19.63
2019-04-24T00:08:06.648Z,16.97
2019-04-24T00:11:16.311Z,14.47
2019-04-24T00:13:13.782Z,17.20
2019-04-24T00:15:47.331Z,18.60
2019-04-24T00:20:45.533Z,17.20
2019-04-24T00:25:43.335Z,14.23
2019-04-24T00:31:00.527Z,18.77
2019-04-24T00:36:21.730Z,18.40
2019-04-24T00:49:18.286Z,25.03
2019-04-24T00:54:11.327Z,19.70
2019-04-24T01:01:54.093Z,19.07
2019-04-24T01:04:54.565Z,19.17
2019-04-24T01:07:19.430Z,22.80
2019-04-24T01:09:52.932Z,18.10
2019-04-24T01:12:10.253Z,17.20
2019-04-24T01:17:14.173Z,17.47
2019-04-24T01:19:40.609Z,18.00
2019-04-24T01:24:26.495Z,18.33
2019-04-24T01:29:43.505Z,16.30
2019-04-24T01:32:05.667Z,13.90
2019-04-24T01:34:38.070Z,19.30
2019-04-24T01:37:30.590Z,17.10
2019-04-24T01:40:04.211Z,26.60
2019-04-24T01:42:27.149Z,17.40
2019-04-24T01:47:42.886Z,21.83
2019-04-24T01:50:00.040Z,15.33
2019-04-24T01:52:42.107Z,17.50
2019-04-24T01:54:54.217Z,24.17
2019-04-24T01:57:35.445Z,26.90
2019-04-24T02:00:03.111Z,18.60
2019-04-24T02:05:02.985Z,18.40
2019-04-24T02:10:42.627Z,24.30
2019-04-24T02:13:16.922Z,20.67
2019-04-24T02:15:30.652Z,15.90
2019-04-24T02:23:08.932Z,24.30
2019-04-24T02:25:36.753Z,19.23
2019-04-24T02:30:58.547Z,21.67
2019-04-24T02:38:26.853Z,23.67
2019-04-24T02:40:59.989Z,24.03
2019-04-24T02:48:38.210Z,19.40
2019-04-24T02:50:54.000Z,17.67
2019-04-24T02:53:20.068Z,19.10
2019-04-24T02:55:50.161Z,26.67
2019-04-24T02:58:35.933Z,18.50
2019-04-24T03:00:57.369Z,18.83
2019-04-24T03:11:10.263Z,23.37
2019-04-24T03:13:53.938Z,25.07
2019-04-24T03:16:54.021Z,20.27
2019-04-24T03:21:57.020Z,19.33
2019-04-24T03:24:02.135Z,18.10
2019-04-24T03:29:19.724Z,18.40
2019-04-24T03:32:07.192Z,17.50
2019-04-24T03:34:43.565Z,21.00
2019-04-24T03:37:01.092Z,21.67
2019-04-24T03:46:54.569Z,18.83
2019-04-24T03:54:24.962Z,19.50
2019-04-24T03:57:09.809Z,23.80
2019-04-24T04:00:27.338Z,20.43
2019-04-24T04:02:47.267Z,20.17
2019-04-24T04:07:42.101Z,21.63
2019-04-24T04:20:13.317Z,22.40
2019-04-24T04:25:30.376Z,27.63
2019-04-24T04:30:37.018Z,20.53
2019-04-24T04:33:11.221Z,22.83
2019-04-24T04:35:36.504Z,22.93
2019-04-24T04:38:35.159Z,22.53
2019-04-24T04:41:09.718Z,21.57
2019-04-24T04:43:39.175Z,22.73
2019-04-24T04:46:13.927Z,22.40
2019-04-24T04:48:46.968Z,22.90
2019-04-24T04:58:57.815Z,31.40
2019-04-24T05:03:48.689Z,23.60
2019-04-24T05:09:37.210Z,27.73
2019-04-24T05:11:34.284Z,26.00
2019-04-24T05:14:18.431Z,21.50
2019-04-24T05:19:14.960Z,22.80
2019-04-24T05:27:06.422Z,23.00
2019-04-24T05:29:16.406Z,26.50
2019-04-24T05:31:46.566Z,22.60
2019-04-24T05:34:25.975Z,22.57
2019-04-24T05:39:37.550Z,24.87
2019-04-24T05:42:11.043Z,24.53
2019-04-24T05:44:18.986Z,25.30
2019-04-24T05:46:52.913Z,22.73
2019-04-24T05:49:35.293Z,25.20
2019-04-24T05:51:54.923Z,22.47
2019-04-24T05:54:31.736Z,23.67
2019-04-24T05:57:46.582Z,22.67
2019-04-24T06:10:05.419Z,26.30
2019-04-24T06:12:49.011Z,23.33
2019-04-24T06:15:13.553Z,26.17
2019-04-24T06:17:59.954Z,24.23
2019-04-24T06:20:51.458Z,24.83
2019-04-24T06:23:02.626Z,22.10
2019-04-24T06:25:47.074Z,23.70
2019-04-24T06:27:54.419Z,23.30
2019-04-24T06:30:37.086Z,24.20
2019-04-24T06:33:22.215Z,22.10
2019-04-24T06:41:16.477Z,24.30
2019-04-24T06:46:07.397Z,19.00
2019-04-24T06:48:39.439Z,20.60
2019-04-24T06:51:18.584Z,22.60
2019-04-24T06:53:53.440Z,21.00
2019-04-24T06:56:25.197Z,19.97
2019-04-24T06:58:40.740Z,21.10
2019-04-24T07:01:25.264Z,22.30
2019-04-24T07:04:10.028Z,23.37
2019-04-24T07:06:40.340Z,21.80
2019-04-24T07:12:12.005Z,39.47
2019-04-24T07:14:34.248Z,22.77
2019-04-24T07:27:26.607Z,23.30
2019-04-24T07:30:13.426Z,18.73
2019-04-24T07:32:42.370Z,19.03
2019-04-24T07:35:16.922Z,20.03
2019-04-24T07:40:10.101Z,19.70
2019-04-24T07:42:43.154Z,21.20
2019-04-24T07:45:21.376Z,21.70
2019-04-24T07:47:39.399Z,22.23
2019-04-24T07:52:59.948Z,17.50
2019-04-24T07:55:19.189Z,23.37
2019-04-24T07:57:44.536Z,21.23
2019-04-24T08:00:20.580Z,18.10
2019-04-24T08:13:02.045Z,19.90
2019-04-24T08:15:53.404Z,16.93
2019-04-24T08:20:43.335Z,18.50
2019-04-24T08:22:55.222Z,21.60
2019-04-24T08:30:43.230Z,17.00
2019-04-24T08:33:13.307Z,17.87
2019-04-24T08:35:48.753Z,16.33
2019-04-24T08:38:33.207Z,16.00
2019-04-24T08:46:40.343Z,15.30
2019-04-24T08:49:15.222Z,14.20
2019-04-24T08:54:04.361Z,13.37
2019-04-24T08:56:46.142Z,14.97
2019-04-24T08:59:07.887Z,15.87
2019-04-24T09:04:15.814Z,15.47
2019-04-24T09:06:44.420Z,12.57
2019-04-24T09:09:14.878Z,14.93
2019-04-24T09:11:51.315Z,13.43
2019-04-24T09:16:58.504Z,15.93
2019-04-24T09:19:32.959Z,13.63
2019-04-24T09:25:04.859Z,14.67
2019-04-24T09:27:21.686Z,12.93
2019-04-24T09:35:04.642Z,16.43
2019-04-24T09:37:26.828Z,13.17
2019-04-24T09:43:06.796Z,15.10
2019-04-24T09:47:56.617Z,11.87
2019-04-24T09:50:21.291Z,15.20
2019-04-24T09:53:14.825Z,13.57
2019-04-24T09:55:29.228Z,12.40
2019-04-24T10:00:45.947Z,12.70
2019-04-24T10:03:01.994Z,13.70
2019-04-24T10:05:51.563Z,15.90
2019-04-24T10:08:09.301Z,11.97
2019-04-24T10:10:37.981Z,12.03
2019-04-24T10:13:26.250Z,13.90
2019-04-24T10:15:42.787Z,11.47
2019-04-24T10:18:40.819Z,16.53
2019-04-24T10:20:36.541Z,17.10
2019-04-24T10:23:17.286Z,13.73
2019-04-24T10:26:07.048Z,12.13
2019-04-24T10:28:52.015Z,14.00
2019-04-24T10:31:11.394Z,12.03
2019-04-24T10:34:03.760Z,12.07
2019-04-24T10:36:30.941Z,17.13
2019-04-24T10:39:05.182Z,11.97
2019-04-24T10:44:34.621Z,15.60
2019-04-24T10:52:08.424Z,14.43
2019-04-24T10:54:43.728Z,16.43
2019-04-24T10:57:13.106Z,16.23
2019-04-24T10:59:47.163Z,15.27
2019-04-24T11:05:03.622Z,15.70
2019-04-24T11:07:53.069Z,15.13
2019-04-24T11:16:16.334Z,17.30
2019-04-24T11:19:08.319Z,14.90
2019-04-24T11:21:51.384Z,17.37
2019-04-24T11:24:17.231Z,13.63
2019-04-24T11:26:36.914Z,14.53
2019-04-24T11:28:59.264Z,14.40
2019-04-24T11:31:49.716Z,17.10
2019-04-24T11:40:19.252Z,17.37
2019-04-24T11:42:30.301Z,16.23
2019-04-24T11:44:43.873Z,13.60
2019-04-24T11:50:38.846Z,12.80
2019-04-24T11:53:09.307Z,11.10
2019-04-24T11:55:32.890Z,13.90
2019-04-24T12:00:12.072Z,13.00
2019-04-24T12:02:57.852Z,16.00
2019-04-24T12:05:41.785Z,15.07
2019-04-24T12:10:59.135Z,15.13
2019-04-24T12:13:17.325Z,15.80
2019-04-24T12:15:58.337Z,16.07
2019-04-24T12:23:55.596Z,15.63
2019-04-24T12:26:20.309Z,19.70
2019-04-24T12:28:59.216Z,18.90
2019-04-24T12:31:35.451Z,15.50
2019-04-24T12:33:54.804Z,17.90
2019-04-24T12:36:33.086Z,20.30
2019-04-24T12:39:08.539Z,14.87
2019-04-24T12:49:45.513Z,16.37
2019-04-24T12:52:04.835Z,15.37
2019-04-24T12:54:51.040Z,13.93
2019-04-24T12:57:37.826Z,15.57
2019-04-24T13:00:10.113Z,14.00
2019-04-24T13:03:05.371Z,21.30
2019-04-24T13:10:59.288Z,16.97
2019-04-24T13:13:12.668Z,17.90
2019-04-24T13:16:05.195Z,13.37
2019-04-24T13:18:40.836Z,16.73
2019-04-24T13:20:43.173Z,16.23
2019-04-24T13:23:23.531Z,26.40
2019-04-24T13:26:19.871Z,16.90
2019-04-24T13:31:41.674Z,16.47
2019-04-24T13:34:16.776Z,13.30
2019-04-24T13:39:05.551Z,17.10
2019-04-24T13:41:47.888Z,13.20
2019-04-24T13:44:10.232Z,14.20
2019-04-24T13:46:36.398Z,12.87
2019-04-24T13:49:16.711Z,15.50
2019-04-24T13:51:58.679Z,13.20
2019-04-24T13:54:13.217Z,58.53
2019-04-24T13:56:53.293Z,14.30
2019-04-24T13:59:09.062Z,18.80
2019-04-24T14:01:51.085Z,12.60
2019-04-24T14:09:43.917Z,14.60
2019-04-24T14:16:48.566Z,16.83
2019-04-24T14:19:35.258Z,23.10
2019-04-24T14:21:55.567Z,14.20
2019-04-24T14:29:28.205Z,15.60
2019-04-24T14:32:05.176Z,12.00
2019-04-24T14:37:04.649Z,12.53
2019-04-24T14:42:03.842Z,12.53
2019-04-24T14:44:42.649Z,17.60
2019-04-24T14:47:15.513Z,12.20
2019-04-24T14:49:54.168Z,12.23
2019-04-24T14:52:14.954Z,12.97
2019-04-24T14:54:41.151Z,15.67
2019-04-24T14:57:16.840Z,15.90
2019-04-24T14:59:44.762Z,11.10
2019-04-24T15:02:17.358Z,10.90
2019-04-24T15:04:50.910Z,10.70
2019-04-24T15:09:45.980Z,13.23
2019-04-24T15:12:18.877Z,16.03
2019-04-24T15:14:48.095Z,12.77
2019-04-24T15:17:18.770Z,12.40
2019-04-24T15:22:19.396Z,11.27
2019-04-24T15:25:00.929Z,13.07
2019-04-24T15:32:20.021Z,12.53
2019-04-24T15:34:53.187Z,11.13
2019-04-24T15:40:15.051Z,10.93
2019-04-24T15:42:14.571Z,11.20
2019-04-24T15:44:58.825Z,10.93
2019-04-24T15:51:51.117Z,9.20
2019-04-24T15:54:19.736Z,14.83
2019-04-24T15:56:50.117Z,12.40
2019-04-24T15:59:45.326Z,12.37
2019-04-24T16:04:53.158Z,11.67
2019-04-24T16:06:58.655Z,12.10
2019-04-24T16:09:28.993Z,12.60
2019-04-24T16:11:57.716Z,9.60
2019-04-24T16:14:49.850Z,11.63
2019-04-24T16:22:21.250Z,13.47
2019-04-24T16:27:35.843Z,8.77
2019-04-24T16:30:02.835Z,15.50
2019-04-24T16:34:56.396Z,13.40
2019-04-24T16:37:22.705Z,12.17
2019-04-24T16:45:10.203Z,11.10
2019-04-24T16:48:08.257Z,14.07
2019-04-24T16:50:22.981Z,12.43
2019-04-24T16:55:11.955Z,13.93
2019-04-24T16:57:57.582Z,13.03
2019-04-24T17:02:54.024Z,14.43
2019-04-24T17:05:31.681Z,20.03
2019-04-24T17:07:50.437Z,13.83
2019-04-24T17:12:44.020Z,23.97
2019-04-24T17:15:22.640Z,14.77
2019-04-24T17:18:06.221Z,15.97
2019-04-24T17:20:52.016Z,34.13
2019-04-24T17:23:13.525Z,15.00
2019-04-24T17:25:47.211Z,14.73
2019-04-24T17:28:25.525Z,13.30
2019-04-24T17:30:40.913Z,13.63
2019-04-24T17:33:08.896Z,13.27
2019-04-24T17:35:39.055Z,23.93
2019-04-24T17:37:44.547Z,15.23
2019-04-24T17:40:27.460Z,17.17
2019-04-24T17:43:11.955Z,18.87
2019-04-24T17:46:00.702Z,20.20
2019-04-24T17:50:57.145Z,20.03
2019-04-24T17:53:29.978Z,15.17
2019-04-24T17:55:54.827Z,14.23
2019-04-24T17:58:04.918Z,14.73
2019-04-24T18:00:38.772Z,15.60
2019-04-24T18:03:11.006Z,22.97
2019-04-24T18:05:37.774Z,34.37
2019-04-24T18:08:06.335Z,22.33
2019-04-24T18:10:36.023Z,14.90
2019-04-24T18:13:07.826Z,18.53
2019-04-24T18:15:36.287Z,20.37
2019-04-24T18:18:04.889Z,28.50
2019-04-24T18:20:33.382Z,16.00
2019-04-24T18:23:02.915Z,16.50
2019-04-24T18:25:33.277Z,15.83
2019-04-24T18:28:01.747Z,22.30
2019-04-24T18:30:32.720Z,17.63
2019-04-24T18:33:04.070Z,17.87
2019-04-24T18:35:32.171Z,15.53
2019-04-24T18:38:06.760Z,18.77
2019-04-24T18:40:30.896Z,20.20
2019-04-24T18:42:59.422Z,13.20
2019-04-24T18:45:28.030Z,14.40
2019-04-24T18:47:56.482Z,18.73
2019-04-24T18:50:25.046Z,22.50
2019-04-24T18:52:53.498Z,12.70
2019-04-24T18:55:21.969Z,12.63
2019-04-24T18:57:50.510Z,20.23
2019-04-24T19:00:19.433Z,14.17
2019-04-24T19:02:47.970Z,12.20
2019-04-24T19:05:17.324Z,19.30
2019-04-24T19:07:45.836Z,14.97
2019-04-24T19:10:15.427Z,18.23
2019-04-24T19:12:43.990Z,16.37
2019-04-24T19:15:12.946Z,12.10
2019-04-24T19:17:54.115Z,16.20
2019-04-24T19:20:13.526Z,23.47
2019-04-24T19:22:41.999Z,16.30
2019-04-24T19:25:11.327Z,15.97
2019-04-24T19:27:40.909Z,14.80
2019-04-24T19:30:10.894Z,20.73
2019-04-24T19:32:41.707Z,16.90
2019-04-24T19:35:10.554Z,18.83
2019-04-24T19:37:39.041Z,22.67
2019-04-24T19:40:07.699Z,14.80
2019-04-24T19:42:36.258Z,18.33
2019-04-24T19:45:05.943Z,16.47
2019-04-24T19:47:38.903Z,19.43
2019-04-24T19:50:08.163Z,18.93
2019-04-24T19:52:36.561Z,15.37
2019-04-24T19:55:07.859Z,19.70
2019-04-24T19:57:36.340Z,14.77
2019-04-24T20:00:07.970Z,16.07
2019-04-24T20:02:36.979Z,16.40
2019-04-24T20:05:06.391Z,23.97
2019-04-24T20:07:34.848Z,14.53
2019-04-24T20:10:22.262Z,20.50
2019-04-24T20:12:51.112Z,18.60
2019-04-24T20:15:20.461Z,18.10
2019-04-24T20:17:49.858Z,20.97
2019-04-24T20:20:19.181Z,16.97
2019-04-24T20:22:47.861Z,19.37
2019-04-24T20:25:16.401Z,19.17
2019-04-24T20:27:44.917Z,20.73
2019-04-24T20:30:14.312Z,17.57
2019-04-24T20:32:42.963Z,22.13
2019-04-24T20:35:14.891Z,18.27
2019-04-24T20:37:43.609Z,21.10
2019-04-24T20:40:12.450Z,25.40
2019-04-24T20:42:40.990Z,21.43
2019-04-24T20:45:11.498Z,20.90
2019-04-24T20:47:41.328Z,21.87
2019-04-24T20:50:14.652Z,21.20
2019-04-24T20:52:43.286Z,17.57
2019-04-24T20:55:12.862Z,18.77
2019-04-24T20:57:41.595Z,22.53
2019-04-24T21:00:11.558Z,19.53
2019-04-24T21:02:41.909Z,18.83
2019-04-24T21:05:11.986Z,22.63
2019-04-24T21:07:45.203Z,19.60
2019-04-24T21:10:18.361Z,21.50
2019-04-24T21:12:46.892Z,19.60
2019-04-24T21:15:20.387Z,21.83
2019-04-24T21:17:48.977Z,21.50
2019-04-24T21:20:17.502Z,20.57
2019-04-24T21:22:45.981Z,41.57
2019-04-24T21:25:14.450Z,32.30
2019-04-24T21:27:43.020Z,22.20
2019-04-24T21:30:12.329Z,18.77
2019-04-24T21:32:41.981Z,14.60
2019-04-24T21:35:11.198Z,17.63
2019-04-24T21:37:39.652Z,17.40
2019-04-24T21:40:09.276Z,9.90
2019-04-24T21:42:37.738Z,10.63
2019-04-24T21:45:08.622Z,7.63
2019-04-24T21:47:37.091Z,11.93
2019-04-24T21:50:06.349Z,9.93
2019-04-24T21:52:34.997Z,8.53
2019-04-24T21:55:06.313Z,7.80
2019-04-24T21:57:36.418Z,9.30
2019-04-24T22:00:12.502Z,9.17
2019-04-24T22:02:43.779Z,9.33
2019-04-24T22:05:17.136Z,7.47
2019-04-24T22:07:46.979Z,15.53
2019-04-24T22:10:15.985Z,7.17
2019-04-24T22:12:44.684Z,7.33
2019-04-24T22:15:13.872Z,8.93
2019-04-24T22:17:44.450Z,9.23
2019-04-24T22:20:24.124Z,10.50
2019-04-24T22:23:00.263Z,7.70
2019-04-24T22:25:36.594Z,7.77
2019-04-24T22:28:05.097Z,8.77
2019-04-24T22:30:35.412Z,8.93
2019-04-24T22:33:03.935Z,6.87
2019-04-24T22:35:34.120Z,7.93
2019-04-24T22:38:02.583Z,7.30
2019-04-24T22:40:34.079Z,6.60
2019-04-24T22:43:03.394Z,9.93
2019-04-24T22:45:32.706Z,7.20
2019-04-24T22:48:02.105Z,6.60
2019-04-24T22:50:30.745Z,5.90
2019-04-24T22:52:59.308Z,6.60
2019-04-24T22:55:28.653Z,6.13
2019-04-24T22:57:57.994Z,5.37
2019-04-24T23:00:28.341Z,5.97
2019-04-24T23:02:57.051Z,6.93
2019-04-24T23:05:25.581Z,6.10
2019-04-24T23:07:54.200Z,7.07
2019-04-24T23:10:33.705Z,6.27
2019-04-24T23:12:52.837Z,5.60
2019-04-24T23:15:21.458Z,7.47
2019-04-24T23:17:50.982Z,6.87
2019-04-24T23:20:21.247Z,5.80
2019-04-24T23:22:51.545Z,9.60
2019-04-24T23:25:27.754Z,10.10
2019-04-24T23:27:57.847Z,7.63
2019-04-24T23:30:43.290Z,7.50
2019-04-24T23:33:16.142Z,6.27
2019-04-24T23:35:44.762Z,8.70
2019-04-24T23:38:13.216Z,8.10
2019-04-24T23:40:42.205Z,7.03
2019-04-24T23:43:11.721Z,6.90
2019-04-24T23:45:40.540Z,6.47
2019-04-24T23:48:09.110Z,7.23
2019-04-24T23:50:37.592Z,8.83
2019-04-24T23:53:06.118Z,7.03
2019-04-24T23:55:35.943Z,8.90
2019-04-24T23:58:04.584Z,6.10
